Terminal Aerodrome Forecast
Issued by NWS Sterling, VA

Current Version | Previous Version | Text Only | Print | Product List | Glossary On
Versions: 1 2 3 4 5 6 7 8 9 10 11 12 13 14 15 16 17 18 19 20 21 22 23 24 25 26 27 28 29 30 31 32 33 34
000
FTUS41 KLWX 110525
TAFIAD
TAF
KIAD 110525Z 1106/1212 VRB03KT P6SM VCSH SCT050 BKN130
      TEMPO 1108/1111 5SM BR
     FM111100 32004KT P6SM SCT025 BKN130
     FM111500 32009KT P6SM SCT060
     FM120000 29004KT P6SM SCT050 BKN100
     FM120400 34008G16KT P6SM SCT050 BKN090=

USA.gov is the U.S. government's official web portal to all federal, state and local government web resources and services.